sensor_id;sensor_type;location;lat;lon;timestamp;temperature;humidity
45044;DHT22;30784;48.490;9.688;2023-05-07T00:00:21;17.90;48.50
45044;DHT22;30784;48.490;9.688;2023-05-07T00:02:46;17.90;48.60
45044;DHT22;30784;48.490;9.688;2023-05-07T00:05:12;17.90;48.70
45044;DHT22;30784;48.490;9.688;2023-05-07T00:07:38;17.90;48.60
45044;DHT22;30784;48.490;9.688;2023-05-07T00:10:04;17.90;48.40
45044;DHT22;30784;48.490;9.688;2023-05-07T00:12:31;17.80;48.40
45044;DHT22;30784;48.490;9.688;2023-05-07T00:14:59;17.80;48.30
45044;DHT22;30784;48.490;9.688;2023-05-07T00:17:25;17.80;48.30
45044;DHT22;30784;48.490;9.688;2023-05-07T00:19:50;17.90;48.40
45044;DHT22;30784;48.490;9.688;2023-05-07T00:22:16;17.90;48.60
45044;DHT22;30784;48.490;9.688;2023-05-07T00:24:41;17.90;48.60
45044;DHT22;30784;48.490;9.688;2023-05-07T00:27:07;17.90;48.60
45044;DHT22;30784;48.490;9.688;2023-05-07T00:29:33;17.90;48.40
45044;DHT22;30784;48.490;9.688;2023-05-07T00:31:58;17.80;48.40
45044;DHT22;30784;48.490;9.688;2023-05-07T00:34:24;17.80;48.50
45044;DHT22;30784;48.490;9.688;2023-05-07T00:36:49;17.80;48.60
45044;DHT22;30784;48.490;9.688;2023-05-07T00:39:15;17.80;48.40
45044;DHT22;30784;48.490;9.688;2023-05-07T00:41:41;17.70;48.40
45044;DHT22;30784;48.490;9.688;2023-05-07T00:44:06;17.70;48.40
45044;DHT22;30784;48.490;9.688;2023-05-07T00:46:32;17.70;48.50
45044;DHT22;30784;48.490;9.688;2023-05-07T00:48:59;17.70;48.70
45044;DHT22;30784;48.490;9.688;2023-05-07T00:51:26;17.70;48.70
45044;DHT22;30784;48.490;9.688;2023-05-07T00:53:53;17.70;48.70
45044;DHT22;30784;48.490;9.688;2023-05-07T00:56:21;17.60;49.30
45044;DHT22;30784;48.490;9.688;2023-05-07T00:58:48;17.60;48.80
45044;DHT22;30784;48.490;9.688;2023-05-07T01:01:14;17.60;48.90
45044;DHT22;30784;48.490;9.688;2023-05-07T01:03:42;17.60;49.00
45044;DHT22;30784;48.490;9.688;2023-05-07T01:06:08;17.60;49.00
45044;DHT22;30784;48.490;9.688;2023-05-07T01:08:35;17.50;49.00
45044;DHT22;30784;48.490;9.688;2023-05-07T01:11:01;17.50;49.00
45044;DHT22;30784;48.490;9.688;2023-05-07T01:13:27;17.50;49.10
45044;DHT22;30784;48.490;9.688;2023-05-07T01:15:53;17.50;49.10
45044;DHT22;30784;48.490;9.688;2023-05-07T01:18:19;17.50;49.40
45044;DHT22;30784;48.490;9.688;2023-05-07T01:20:45;17.50;49.60
45044;DHT22;30784;48.490;9.688;2023-05-07T01:23:11;17.40;49.40
45044;DHT22;30784;48.490;9.688;2023-05-07T01:25:36;17.40;49.60
45044;DHT22;30784;48.490;9.688;2023-05-07T01:28:02;17.40;49.30
45044;DHT22;30784;48.490;9.688;2023-05-07T01:30:28;17.40;49.20
45044;DHT22;30784;48.490;9.688;2023-05-07T01:33:07;17.40;49.20
45044;DHT22;30784;48.490;9.688;2023-05-07T01:35:40;17.40;49.20
45044;DHT22;30784;48.490;9.688;2023-05-07T01:38:08;17.40;49.50
45044;DHT22;30784;48.490;9.688;2023-05-07T01:40:33;17.40;49.60
45044;DHT22;30784;48.490;9.688;2023-05-07T01:43:03;17.30;49.50
45044;DHT22;30784;48.490;9.688;2023-05-07T01:45:30;17.30;49.50
45044;DHT22;30784;48.490;9.688;2023-05-07T01:47:58;17.30;49.50
45044;DHT22;30784;48.490;9.688;2023-05-07T01:50:25;17.30;49.60
45044;DHT22;30784;48.490;9.688;2023-05-07T01:52:51;17.30;49.70
45044;DHT22;30784;48.490;9.688;2023-05-07T01:55:17;17.20;49.60
45044;DHT22;30784;48.490;9.688;2023-05-07T01:57:42;17.20;49.80
45044;DHT22;30784;48.490;9.688;2023-05-07T02:00:08;17.20;49.70
45044;DHT22;30784;48.490;9.688;2023-05-07T02:02:35;17.20;49.80
45044;DHT22;30784;48.490;9.688;2023-05-07T02:05:01;17.20;50.00
45044;DHT22;30784;48.490;9.688;2023-05-07T02:07:27;17.20;49.90
45044;DHT22;30784;48.490;9.688;2023-05-07T02:09:53;17.10;49.70
45044;DHT22;30784;48.490;9.688;2023-05-07T02:12:20;17.10;49.80
45044;DHT22;30784;48.490;9.688;2023-05-07T02:14:46;17.10;49.80
45044;DHT22;30784;48.490;9.688;2023-05-07T02:17:11;17.10;49.80
45044;DHT22;30784;48.490;9.688;2023-05-07T02:19:37;17.10;49.80
45044;DHT22;30784;48.490;9.688;2023-05-07T02:22:02;17.10;49.80
45044;DHT22;30784;48.490;9.688;2023-05-07T02:24:28;17.10;49.80
45044;DHT22;30784;48.490;9.688;2023-05-07T02:26:53;17.10;49.90
45044;DHT22;30784;48.490;9.688;2023-05-07T02:29:19;17.00;50.00
45044;DHT22;30784;48.490;9.688;2023-05-07T02:31:44;17.00;50.00
45044;DHT22;30784;48.490;9.688;2023-05-07T02:34:10;17.00;50.10
45044;DHT22;30784;48.490;9.688;2023-05-07T02:36:36;17.00;50.10
45044;DHT22;30784;48.490;9.688;2023-05-07T02:39:01;17.00;50.10
45044;DHT22;30784;48.490;9.688;2023-05-07T02:41:28;16.90;50.10
45044;DHT22;30784;48.490;9.688;2023-05-07T02:43:53;16.90;50.20
45044;DHT22;30784;48.490;9.688;2023-05-07T02:46:19;16.90;50.20
45044;DHT22;30784;48.490;9.688;2023-05-07T02:48:44;16.90;50.10
45044;DHT22;30784;48.490;9.688;2023-05-07T02:51:10;16.90;50.10
45044;DHT22;30784;48.490;9.688;2023-05-07T02:53:36;16.90;50.20
45044;DHT22;30784;48.490;9.688;2023-05-07T02:56:02;16.80;50.30
45044;DHT22;30784;48.490;9.688;2023-05-07T02:58:27;16.80;50.30
45044;DHT22;30784;48.490;9.688;2023-05-07T03:00:53;16.70;50.30
45044;DHT22;30784;48.490;9.688;2023-05-07T03:03:20;16.70;50.40
45044;DHT22;30784;48.490;9.688;2023-05-07T03:05:46;16.70;50.60
45044;DHT22;30784;48.490;9.688;2023-05-07T03:08:11;16.70;50.60
45044;DHT22;30784;48.490;9.688;2023-05-07T03:10:37;16.70;50.60
45044;DHT22;30784;48.490;9.688;2023-05-07T03:13:03;16.70;50.70
45044;DHT22;30784;48.490;9.688;2023-05-07T03:15:29;16.60;50.70
45044;DHT22;30784;48.490;9.688;2023-05-07T03:17:55;16.60;50.80
45044;DHT22;30784;48.490;9.688;2023-05-07T03:20:20;16.50;50.90
45044;DHT22;30784;48.490;9.688;2023-05-07T03:22:46;16.50;51.00
45044;DHT22;30784;48.490;9.688;2023-05-07T03:25:12;16.50;51.00
45044;DHT22;30784;48.490;9.688;2023-05-07T03:27:39;16.50;51.00
45044;DHT22;30784;48.490;9.688;2023-05-07T03:30:05;16.40;51.00
45044;DHT22;30784;48.490;9.688;2023-05-07T03:32:32;16.40;51.00
45044;DHT22;30784;48.490;9.688;2023-05-07T03:34:57;16.40;51.20
45044;DHT22;30784;48.490;9.688;2023-05-07T03:37:23;16.40;51.80
45044;DHT22;30784;48.490;9.688;2023-05-07T03:39:48;16.30;51.30
45044;DHT22;30784;48.490;9.688;2023-05-07T03:42:15;16.30;51.30
45044;DHT22;30784;48.490;9.688;2023-05-07T03:44:40;16.30;51.40
45044;DHT22;30784;48.490;9.688;2023-05-07T03:47:06;16.30;51.50
45044;DHT22;30784;48.490;9.688;2023-05-07T03:49:31;16.30;51.30
45044;DHT22;30784;48.490;9.688;2023-05-07T03:51:57;16.30;51.40
45044;DHT22;30784;48.490;9.688;2023-05-07T03:54:22;16.20;51.50
45044;DHT22;30784;48.490;9.688;2023-05-07T03:56:48;16.20;51.60
45044;DHT22;30784;48.490;9.688;2023-05-07T03:59:14;16.20;51.70
45044;DHT22;30784;48.490;9.688;2023-05-07T04:01:39;16.20;51.80
45044;DHT22;30784;48.490;9.688;2023-05-07T04:04:05;16.20;51.70
45044;DHT22;30784;48.490;9.688;2023-05-07T04:06:31;16.10;51.60
45044;DHT22;30784;48.490;9.688;2023-05-07T04:11:23;16.10;51.20
45044;DHT22;30784;48.490;9.688;2023-05-07T04:13:48;16.10;51.80
45044;DHT22;30784;48.490;9.688;2023-05-07T04:16:14;16.00;51.70
45044;DHT22;30784;48.490;9.688;2023-05-07T04:18:40;16.00;51.80
45044;DHT22;30784;48.490;9.688;2023-05-07T04:21:06;16.00;52.10
45044;DHT22;30784;48.490;9.688;2023-05-07T04:23:38;16.10;52.20
45044;DHT22;30784;48.490;9.688;2023-05-07T04:26:04;16.00;52.40
45044;DHT22;30784;48.490;9.688;2023-05-07T04:28:29;16.00;52.40
45044;DHT22;30784;48.490;9.688;2023-05-07T04:30:55;16.00;52.40
45044;DHT22;30784;48.490;9.688;2023-05-07T04:33:21;16.00;52.60
45044;DHT22;30784;48.490;9.688;2023-05-07T04:35:46;15.90;52.60
45044;DHT22;30784;48.490;9.688;2023-05-07T04:38:12;16.00;52.70
45044;DHT22;30784;48.490;9.688;2023-05-07T04:40:37;15.90;52.70
45044;DHT22;30784;48.490;9.688;2023-05-07T04:43:04;15.90;52.70
45044;DHT22;30784;48.490;9.688;2023-05-07T04:45:29;16.00;52.70
45044;DHT22;30784;48.490;9.688;2023-05-07T04:47:55;15.90;52.80
45044;DHT22;30784;48.490;9.688;2023-05-07T04:50:20;15.90;52.90
45044;DHT22;30784;48.490;9.688;2023-05-07T04:52:48;15.90;52.80
45044;DHT22;30784;48.490;9.688;2023-05-07T04:55:14;15.90;52.90
45044;DHT22;30784;48.490;9.688;2023-05-07T04:57:40;15.90;52.90
45044;DHT22;30784;48.490;9.688;2023-05-07T05:00:07;15.90;52.90
45044;DHT22;30784;48.490;9.688;2023-05-07T05:02:34;15.90;53.00
45044;DHT22;30784;48.490;9.688;2023-05-07T05:05:00;15.90;53.10
45044;DHT22;30784;48.490;9.688;2023-05-07T05:07:27;15.90;53.10
45044;DHT22;30784;48.490;9.688;2023-05-07T05:09:53;15.90;53.20
45044;DHT22;30784;48.490;9.688;2023-05-07T05:12:19;15.90;53.30
45044;DHT22;30784;48.490;9.688;2023-05-07T05:14:44;15.90;53.40
45044;DHT22;30784;48.490;9.688;2023-05-07T05:17:10;15.90;53.60
45044;DHT22;30784;48.490;9.688;2023-05-07T05:19:35;15.90;53.70
45044;DHT22;30784;48.490;9.688;2023-05-07T05:22:01;16.00;53.80
45044;DHT22;30784;48.490;9.688;2023-05-07T05:24:29;16.00;54.00
45044;DHT22;30784;48.490;9.688;2023-05-07T05:26:55;16.00;54.10
45044;DHT22;30784;48.490;9.688;2023-05-07T05:29:20;16.00;54.10
45044;DHT22;30784;48.490;9.688;2023-05-07T05:31:46;16.10;54.20
45044;DHT22;30784;48.490;9.688;2023-05-07T05:34:12;16.10;54.30
45044;DHT22;30784;48.490;9.688;2023-05-07T05:36:37;16.10;54.30
45044;DHT22;30784;48.490;9.688;2023-05-07T05:39:03;16.10;54.50
45044;DHT22;30784;48.490;9.688;2023-05-07T05:41:29;16.20;54.60
45044;DHT22;30784;48.490;9.688;2023-05-07T05:43:55;16.30;54.60
45044;DHT22;30784;48.490;9.688;2023-05-07T05:46:21;16.40;54.70
45044;DHT22;30784;48.490;9.688;2023-05-07T05:48:46;16.50;55.00
45044;DHT22;30784;48.490;9.688;2023-05-07T05:51:12;16.60;55.00
45044;DHT22;30784;48.490;9.688;2023-05-07T05:53:38;16.70;55.00
45044;DHT22;30784;48.490;9.688;2023-05-07T05:56:04;16.80;55.10
45044;DHT22;30784;48.490;9.688;2023-05-07T05:58:29;16.90;55.10
45044;DHT22;30784;48.490;9.688;2023-05-07T06:00:55;17.10;55.20
45044;DHT22;30784;48.490;9.688;2023-05-07T06:03:21;17.20;55.00
45044;DHT22;30784;48.490;9.688;2023-05-07T06:05:47;17.30;54.80
45044;DHT22;30784;48.490;9.688;2023-05-07T06:08:13;17.40;54.70
45044;DHT22;30784;48.490;9.688;2023-05-07T06:10:39;17.50;54.50
45044;DHT22;30784;48.490;9.688;2023-05-07T06:13:05;17.60;54.50
45044;DHT22;30784;48.490;9.688;2023-05-07T06:15:30;17.70;54.50
45044;DHT22;30784;48.490;9.688;2023-05-07T06:17:56;17.90;54.50
45044;DHT22;30784;48.490;9.688;2023-05-07T06:20:23;18.00;54.50
45044;DHT22;30784;48.490;9.688;2023-05-07T06:22:48;18.10;54.20
45044;DHT22;30784;48.490;9.688;2023-05-07T06:25:14;18.30;54.40
45044;DHT22;30784;48.490;9.688;2023-05-07T06:27:40;18.40;54.30
45044;DHT22;30784;48.490;9.688;2023-05-07T06:30:06;18.50;54.10
45044;DHT22;30784;48.490;9.688;2023-05-07T06:32:32;18.70;54.00
45044;DHT22;30784;48.490;9.688;2023-05-07T06:34:57;18.80;54.00
45044;DHT22;30784;48.490;9.688;2023-05-07T06:37:23;18.90;54.00
45044;DHT22;30784;48.490;9.688;2023-05-07T06:39:48;19.10;53.70
45044;DHT22;30784;48.490;9.688;2023-05-07T06:42:14;19.10;53.50
45044;DHT22;30784;48.490;9.688;2023-05-07T06:44:40;19.30;53.30
45044;DHT22;30784;48.490;9.688;2023-05-07T06:47:05;19.30;53.30
45044;DHT22;30784;48.490;9.688;2023-05-07T06:49:31;19.50;53.10
45044;DHT22;30784;48.490;9.688;2023-05-07T06:51:57;19.50;52.90
45044;DHT22;30784;48.490;9.688;2023-05-07T06:54:22;19.60;52.70
45044;DHT22;30784;48.490;9.688;2023-05-07T06:56:48;19.70;52.70
45044;DHT22;30784;48.490;9.688;2023-05-07T06:59:14;19.70;52.70
45044;DHT22;30784;48.490;9.688;2023-05-07T07:01:39;19.70;52.70
45044;DHT22;30784;48.490;9.688;2023-05-07T07:04:05;19.80;52.70
45044;DHT22;30784;48.490;9.688;2023-05-07T07:06:31;19.80;52.50
45044;DHT22;30784;48.490;9.688;2023-05-07T07:08:58;19.90;52.50
45044;DHT22;30784;48.490;9.688;2023-05-07T07:11:23;20.00;52.70
45044;DHT22;30784;48.490;9.688;2023-05-07T07:13:49;20.00;52.10
45044;DHT22;30784;48.490;9.688;2023-05-07T07:16:16;20.00;52.00
45044;DHT22;30784;48.490;9.688;2023-05-07T07:18:41;20.10;51.90
45044;DHT22;30784;48.490;9.688;2023-05-07T07:21:07;20.10;51.90
45044;DHT22;30784;48.490;9.688;2023-05-07T07:23:32;20.10;51.90
45044;DHT22;30784;48.490;9.688;2023-05-07T07:25:58;20.20;51.80
45044;DHT22;30784;48.490;9.688;2023-05-07T07:28:24;20.20;51.70
45044;DHT22;30784;48.490;9.688;2023-05-07T07:30:49;20.20;51.80
45044;DHT22;30784;48.490;9.688;2023-05-07T07:33:15;20.20;51.20
45044;DHT22;30784;48.490;9.688;2023-05-07T07:35:42;20.30;51.30
45044;DHT22;30784;48.490;9.688;2023-05-07T07:38:08;20.30;51.30
45044;DHT22;30784;48.490;9.688;2023-05-07T07:40:36;20.30;51.50
45044;DHT22;30784;48.490;9.688;2023-05-07T07:43:02;20.30;51.40
45044;DHT22;30784;48.490;9.688;2023-05-07T07:45:28;20.40;51.00
45044;DHT22;30784;48.490;9.688;2023-05-07T07:47:54;20.40;50.90
45044;DHT22;30784;48.490;9.688;2023-05-07T07:50:20;20.40;50.60
45044;DHT22;30784;48.490;9.688;2023-05-07T07:52:45;20.40;50.50
45044;DHT22;30784;48.490;9.688;2023-05-07T07:55:11;20.40;50.70
45044;DHT22;30784;48.490;9.688;2023-05-07T07:57:37;20.50;50.80
45044;DHT22;30784;48.490;9.688;2023-05-07T08:00:03;20.50;50.40
45044;DHT22;30784;48.490;9.688;2023-05-07T08:02:29;20.50;50.50
45044;DHT22;30784;48.490;9.688;2023-05-07T08:04:55;20.50;50.20
45044;DHT22;30784;48.490;9.688;2023-05-07T08:07:21;20.50;50.20
45044;DHT22;30784;48.490;9.688;2023-05-07T08:09:48;20.60;50.60
45044;DHT22;30784;48.490;9.688;2023-05-07T08:12:14;20.60;50.60
45044;DHT22;30784;48.490;9.688;2023-05-07T08:14:39;20.70;50.50
45044;DHT22;30784;48.490;9.688;2023-05-07T08:17:05;20.90;50.50
45044;DHT22;30784;48.490;9.688;2023-05-07T08:19:31;21.00;50.40
45044;DHT22;30784;48.490;9.688;2023-05-07T08:21:57;21.10;49.90
45044;DHT22;30784;48.490;9.688;2023-05-07T08:24:23;21.20;49.80
45044;DHT22;30784;48.490;9.688;2023-05-07T08:26:48;21.40;49.70
45044;DHT22;30784;48.490;9.688;2023-05-07T08:29:14;21.50;49.20
45044;DHT22;30784;48.490;9.688;2023-05-07T08:31:40;21.70;49.10
45044;DHT22;30784;48.490;9.688;2023-05-07T08:34:06;21.90;48.90
45044;DHT22;30784;48.490;9.688;2023-05-07T08:36:32;22.00;47.80
45044;DHT22;30784;48.490;9.688;2023-05-07T08:38:57;22.20;47.50
45044;DHT22;30784;48.490;9.688;2023-05-07T08:41:23;22.30;47.10
45044;DHT22;30784;48.490;9.688;2023-05-07T08:43:50;22.30;46.90
45044;DHT22;30784;48.490;9.688;2023-05-07T08:46:20;22.40;46.60
45044;DHT22;30784;48.490;9.688;2023-05-07T08:48:49;22.40;46.80
45044;DHT22;30784;48.490;9.688;2023-05-07T08:51:17;22.40;47.30
45044;DHT22;30784;48.490;9.688;2023-05-07T08:53:43;22.40;46.10
45044;DHT22;30784;48.490;9.688;2023-05-07T08:56:09;22.40;46.10
45044;DHT22;30784;48.490;9.688;2023-05-07T08:58:35;22.30;46.10
45044;DHT22;30784;48.490;9.688;2023-05-07T09:01:06;22.30;45.80
45044;DHT22;30784;48.490;9.688;2023-05-07T09:03:32;22.20;45.80
45044;DHT22;30784;48.490;9.688;2023-05-07T09:05:58;22.20;46.20
45044;DHT22;30784;48.490;9.688;2023-05-07T09:08:27;22.20;46.00
45044;DHT22;30784;48.490;9.688;2023-05-07T09:10:54;22.20;45.70
45044;DHT22;30784;48.490;9.688;2023-05-07T09:13:20;22.20;46.40
45044;DHT22;30784;48.490;9.688;2023-05-07T09:15:45;22.10;45.30
45044;DHT22;30784;48.490;9.688;2023-05-07T09:18:12;22.10;45.50
45044;DHT22;30784;48.490;9.688;2023-05-07T09:20:38;22.10;45.60
45044;DHT22;30784;48.490;9.688;2023-05-07T09:23:05;22.00;45.70
45044;DHT22;30784;48.490;9.688;2023-05-07T09:25:33;22.00;45.70
45044;DHT22;30784;48.490;9.688;2023-05-07T09:27:59;22.00;45.90
45044;DHT22;30784;48.490;9.688;2023-05-07T09:30:31;22.10;46.10
45044;DHT22;30784;48.490;9.688;2023-05-07T09:33:02;22.10;46.00
45044;DHT22;30784;48.490;9.688;2023-05-07T09:35:29;22.10;46.00
45044;DHT22;30784;48.490;9.688;2023-05-07T09:37:59;22.20;45.90
45044;DHT22;30784;48.490;9.688;2023-05-07T09:40:26;22.20;45.80
45044;DHT22;30784;48.490;9.688;2023-05-07T09:42:52;22.30;45.90
45044;DHT22;30784;48.490;9.688;2023-05-07T09:45:28;22.40;45.90
45044;DHT22;30784;48.490;9.688;2023-05-07T09:47:58;22.60;46.30
45044;DHT22;30784;48.490;9.688;2023-05-07T09:50:29;22.70;46.00
45044;DHT22;30784;48.490;9.688;2023-05-07T09:52:56;22.90;44.70
45044;DHT22;30784;48.490;9.688;2023-05-07T09:55:22;23.10;44.70
45044;DHT22;30784;48.490;9.688;2023-05-07T09:57:52;23.30;44.30
45044;DHT22;30784;48.490;9.688;2023-05-07T10:00:21;23.50;44.70
45044;DHT22;30784;48.490;9.688;2023-05-07T10:02:49;23.70;44.40
45044;DHT22;30784;48.490;9.688;2023-05-07T10:05:18;24.00;44.00
45044;DHT22;30784;48.490;9.688;2023-05-07T10:07:44;24.20;43.50
45044;DHT22;30784;48.490;9.688;2023-05-07T10:10:10;24.40;43.10
45044;DHT22;30784;48.490;9.688;2023-05-07T10:12:36;24.70;42.60
45044;DHT22;30784;48.490;9.688;2023-05-07T10:15:09;24.90;42.50
45044;DHT22;30784;48.490;9.688;2023-05-07T10:17:36;25.10;42.30
45044;DHT22;30784;48.490;9.688;2023-05-07T10:20:02;25.30;41.80
45044;DHT22;30784;48.490;9.688;2023-05-07T10:22:37;25.60;42.10
45044;DHT22;30784;48.490;9.688;2023-05-07T10:25:06;25.70;41.60
45044;DHT22;30784;48.490;9.688;2023-05-07T10:27:34;26.00;41.10
45044;DHT22;30784;48.490;9.688;2023-05-07T10:30:52;26.10;40.70
45044;DHT22;30784;48.490;9.688;2023-05-07T10:33:01;26.20;41.20
45044;DHT22;30784;48.490;9.688;2023-05-07T10:35:32;26.40;40.70
45044;DHT22;30784;48.490;9.688;2023-05-07T10:38:01;26.60;40.30
45044;DHT22;30784;48.490;9.688;2023-05-07T10:40:27;26.70;38.80
45044;DHT22;30784;48.490;9.688;2023-05-07T10:42:57;26.80;39.20
45044;DHT22;30784;48.490;9.688;2023-05-07T10:45:25;26.80;39.10
45044;DHT22;30784;48.490;9.688;2023-05-07T10:48:06;26.90;39.40
45044;DHT22;30784;48.490;9.688;2023-05-07T10:50:33;27.00;39.70
45044;DHT22;30784;48.490;9.688;2023-05-07T10:55:43;27.20;39.20
45044;DHT22;30784;48.490;9.688;2023-05-07T11:00:48;27.30;38.30
45044;DHT22;30784;48.490;9.688;2023-05-07T11:03:14;27.20;37.80
45044;DHT22;30784;48.490;9.688;2023-05-07T11:05:41;27.20;38.00
45044;DHT22;30784;48.490;9.688;2023-05-07T11:08:07;27.20;38.40
45044;DHT22;30784;48.490;9.688;2023-05-07T11:13:14;27.20;38.00
45044;DHT22;30784;48.490;9.688;2023-05-07T11:15:47;27.10;37.90
45044;DHT22;30784;48.490;9.688;2023-05-07T11:18:16;27.10;37.90
45044;DHT22;30784;48.490;9.688;2023-05-07T11:20:51;27.00;37.20
45044;DHT22;30784;48.490;9.688;2023-05-07T11:26:15;26.60;38.10
45044;DHT22;30784;48.490;9.688;2023-05-07T11:28:42;26.50;38.10
45044;DHT22;30784;48.490;9.688;2023-05-07T11:31:09;26.30;38.10
45044;DHT22;30784;48.490;9.688;2023-05-07T11:33:36;26.10;38.10
45044;DHT22;30784;48.490;9.688;2023-05-07T11:36:03;25.90;38.50
45044;DHT22;30784;48.490;9.688;2023-05-07T11:38:36;25.70;39.00
45044;DHT22;30784;48.490;9.688;2023-05-07T11:41:02;25.50;39.30
45044;DHT22;30784;48.490;9.688;2023-05-07T11:43:30;25.30;39.70
45044;DHT22;30784;48.490;9.688;2023-05-07T11:46:10;25.10;39.80
45044;DHT22;30784;48.490;9.688;2023-05-07T11:48:36;25.00;40.10
45044;DHT22;30784;48.490;9.688;2023-05-07T11:51:04;24.80;40.50
45044;DHT22;30784;48.490;9.688;2023-05-07T11:53:41;24.70;40.20
45044;DHT22;30784;48.490;9.688;2023-05-07T11:58:33;24.40;40.70
45044;DHT22;30784;48.490;9.688;2023-05-07T12:00:58;24.30;41.00
45044;DHT22;30784;48.490;9.688;2023-05-07T12:03:24;24.20;41.20
45044;DHT22;30784;48.490;9.688;2023-05-07T12:05:49;24.00;41.40
45044;DHT22;30784;48.490;9.688;2023-05-07T12:08:16;24.00;41.80
45044;DHT22;30784;48.490;9.688;2023-05-07T12:10:42;24.00;41.80
45044;DHT22;30784;48.490;9.688;2023-05-07T12:13:34;23.80;41.90
45044;DHT22;30784;48.490;9.688;2023-05-07T12:16:00;23.70;41.70
45044;DHT22;30784;48.490;9.688;2023-05-07T12:18:28;23.70;42.50
45044;DHT22;30784;48.490;9.688;2023-05-07T12:20:55;23.60;42.80
45044;DHT22;30784;48.490;9.688;2023-05-07T12:23:21;23.50;42.40
45044;DHT22;30784;48.490;9.688;2023-05-07T12:25:47;23.50;42.80
45044;DHT22;30784;48.490;9.688;2023-05-07T12:28:17;23.40;43.20
45044;DHT22;30784;48.490;9.688;2023-05-07T12:30:43;23.40;43.40
45044;DHT22;30784;48.490;9.688;2023-05-07T12:33:10;23.40;43.40
45044;DHT22;30784;48.490;9.688;2023-05-07T12:35:38;23.40;43.80
45044;DHT22;30784;48.490;9.688;2023-05-07T12:38:11;23.40;44.00
45044;DHT22;30784;48.490;9.688;2023-05-07T12:40:38;23.40;43.90
45044;DHT22;30784;48.490;9.688;2023-05-07T12:43:03;23.40;43.90
45044;DHT22;30784;48.490;9.688;2023-05-07T12:45:29;23.40;44.20
45044;DHT22;30784;48.490;9.688;2023-05-07T12:47:55;23.40;44.10
45044;DHT22;30784;48.490;9.688;2023-05-07T12:50:22;23.40;44.20
45044;DHT22;30784;48.490;9.688;2023-05-07T12:52:48;23.30;44.10
45044;DHT22;30784;48.490;9.688;2023-05-07T12:55:15;23.30;44.20
45044;DHT22;30784;48.490;9.688;2023-05-07T12:57:49;23.30;44.60
45044;DHT22;30784;48.490;9.688;2023-05-07T13:00:16;23.30;44.30
45044;DHT22;30784;48.490;9.688;2023-05-07T13:02:43;23.30;44.70
45044;DHT22;30784;48.490;9.688;2023-05-07T13:05:11;23.20;44.60
45044;DHT22;30784;48.490;9.688;2023-05-07T13:07:37;23.20;44.70
45044;DHT22;30784;48.490;9.688;2023-05-07T13:10:03;23.20;44.90
45044;DHT22;30784;48.490;9.688;2023-05-07T13:12:29;23.20;45.00
45044;DHT22;30784;48.490;9.688;2023-05-07T13:14:54;23.20;44.80
45044;DHT22;30784;48.490;9.688;2023-05-07T13:17:20;23.20;45.00
45044;DHT22;30784;48.490;9.688;2023-05-07T13:19:45;23.20;44.80
45044;DHT22;30784;48.490;9.688;2023-05-07T13:22:11;23.20;44.70
45044;DHT22;30784;48.490;9.688;2023-05-07T13:24:36;23.20;44.40
45044;DHT22;30784;48.490;9.688;2023-05-07T13:27:02;23.20;44.30
45044;DHT22;30784;48.490;9.688;2023-05-07T13:29:28;23.20;44.40
45044;DHT22;30784;48.490;9.688;2023-05-07T13:31:56;23.20;44.50
45044;DHT22;30784;48.490;9.688;2023-05-07T13:34:22;23.20;44.50
45044;DHT22;30784;48.490;9.688;2023-05-07T13:36:47;23.20;44.60
45044;DHT22;30784;48.490;9.688;2023-05-07T13:39:13;23.20;44.40
45044;DHT22;30784;48.490;9.688;2023-05-07T13:41:39;23.20;44.10
45044;DHT22;30784;48.490;9.688;2023-05-07T13:44:05;23.20;44.20
45044;DHT22;30784;48.490;9.688;2023-05-07T13:46:30;23.20;44.50
45044;DHT22;30784;48.490;9.688;2023-05-07T13:48:56;23.10;44.70
45044;DHT22;30784;48.490;9.688;2023-05-07T13:51:22;23.10;44.80
45044;DHT22;30784;48.490;9.688;2023-05-07T13:53:47;23.10;44.60
45044;DHT22;30784;48.490;9.688;2023-05-07T13:56:14;23.00;44.50
45044;DHT22;30784;48.490;9.688;2023-05-07T13:58:39;23.00;44.70
45044;DHT22;30784;48.490;9.688;2023-05-07T14:01:08;23.00;44.90
45044;DHT22;30784;48.490;9.688;2023-05-07T14:03:33;22.90;45.20
45044;DHT22;30784;48.490;9.688;2023-05-07T14:06:00;22.80;45.40
45044;DHT22;30784;48.490;9.688;2023-05-07T14:08:27;22.80;45.70
45044;DHT22;30784;48.490;9.688;2023-05-07T14:10:55;22.70;45.70
45044;DHT22;30784;48.490;9.688;2023-05-07T14:13:20;22.70;46.10
45044;DHT22;30784;48.490;9.688;2023-05-07T14:15:46;22.60;45.50
45044;DHT22;30784;48.490;9.688;2023-05-07T14:18:13;22.60;45.40
45044;DHT22;30784;48.490;9.688;2023-05-07T14:20:39;22.50;45.50
45044;DHT22;30784;48.490;9.688;2023-05-07T14:23:04;22.50;45.60
45044;DHT22;30784;48.490;9.688;2023-05-07T14:25:30;22.40;45.40
45044;DHT22;30784;48.490;9.688;2023-05-07T14:27:55;22.40;45.30
45044;DHT22;30784;48.490;9.688;2023-05-07T14:30:21;22.30;45.20
45044;DHT22;30784;48.490;9.688;2023-05-07T14:32:49;22.30;44.80
45044;DHT22;30784;48.490;9.688;2023-05-07T14:35:15;22.20;44.40
45044;DHT22;30784;48.490;9.688;2023-05-07T14:37:40;22.20;44.60
45044;DHT22;30784;48.490;9.688;2023-05-07T14:40:06;22.10;44.60
45044;DHT22;30784;48.490;9.688;2023-05-07T14:42:32;22.10;44.90
45044;DHT22;30784;48.490;9.688;2023-05-07T14:44:58;22.10;45.70
45044;DHT22;30784;48.490;9.688;2023-05-07T14:47:23;22.00;46.10
45044;DHT22;30784;48.490;9.688;2023-05-07T14:49:49;22.00;46.40
45044;DHT22;30784;48.490;9.688;2023-05-07T14:52:14;21.90;46.80
45044;DHT22;30784;48.490;9.688;2023-05-07T14:54:40;21.80;47.00
45044;DHT22;30784;48.490;9.688;2023-05-07T14:57:08;21.70;47.50
45044;DHT22;30784;48.490;9.688;2023-05-07T14:59:34;21.50;47.50
45044;DHT22;30784;48.490;9.688;2023-05-07T15:02:00;21.30;47.80
45044;DHT22;30784;48.490;9.688;2023-05-07T15:04:26;21.10;48.40
45044;DHT22;30784;48.490;9.688;2023-05-07T15:06:52;20.90;48.40
45044;DHT22;30784;48.490;9.688;2023-05-07T15:09:19;20.80;48.90
45044;DHT22;30784;48.490;9.688;2023-05-07T15:11:44;20.60;49.00
45044;DHT22;30784;48.490;9.688;2023-05-07T15:14:10;20.50;49.30
45044;DHT22;30784;48.490;9.688;2023-05-07T15:16:35;20.40;49.70
45044;DHT22;30784;48.490;9.688;2023-05-07T15:19:01;20.20;49.80
45044;DHT22;30784;48.490;9.688;2023-05-07T15:21:27;20.10;50.50
45044;DHT22;30784;48.490;9.688;2023-05-07T15:23:52;20.00;50.40
45044;DHT22;30784;48.490;9.688;2023-05-07T15:26:18;19.90;51.00
45044;DHT22;30784;48.490;9.688;2023-05-07T15:28:43;19.80;51.20
45044;DHT22;30784;48.490;9.688;2023-05-07T15:31:09;19.80;51.30
45044;DHT22;30784;48.490;9.688;2023-05-07T15:33:35;19.60;51.60
45044;DHT22;30784;48.490;9.688;2023-05-07T15:36:00;19.60;51.80
45044;DHT22;30784;48.490;9.688;2023-05-07T15:38:28;19.50;51.70
45044;DHT22;30784;48.490;9.688;2023-05-07T15:40:54;19.40;51.90